Time;durP1;ratioP1;P1;durP2;ratioP2;P2;SDS_P1;SDS_P2;PMS_P1;PMS_P2;Temp;Humidity;BMP_temperature;BMP_pressure;BME280_temperature;BME280_humidity;BME280_pressure;Samples;Min_cycle;Max_cycle;Signal;HPM_P1;HPM_P2
2024/03/09 00:01:09;;;;;;;33.60;24.90;;;3.10;1.00;;;;;;5100387;27;20240;-74
2024/03/09 00:03:36;;;;;;;29.55;24.33;;;3.10;1.00;;;;;;5091583;28;20848;-74
2024/03/09 00:06:03;;;;;;;31.08;22.58;;;3.10;1.00;;;;;;5094096;27;20231;-75
2024/03/09 00:08:30;;;;;;;34.90;26.42;;;3.10;1.00;;;;;;5089784;28;20236;-78
2024/03/09 00:10:57;;;;;;;32.13;24.90;;;3.00;1.00;;;;;;5092640;28;20873;-76
2024/03/09 00:13:26;;;;;;;32.17;25.27;;;3.00;1.00;;;;;;5091325;28;20240;-75
2024/03/09 00:15:54;;;;;;;29.85;24.17;;;3.00;1.00;;;;;;5089439;28;20869;-74
2024/03/09 00:18:25;;;;;;;29.20;23.17;;;3.00;1.00;;;;;;5092164;28;20240;-73
2024/03/09 00:20:53;;;;;;;31.88;23.10;;;3.00;1.00;;;;;;5098261;27;20291;-74
2024/03/09 00:23:21;;;;;;;33.53;25.45;;;3.00;1.00;;;;;;5098080;27;20241;-75
2024/03/09 00:25:49;;;;;;;34.40;25.65;;;3.00;1.00;;;;;;5089939;28;20232;-74
2024/03/09 00:28:16;;;;;;;30.98;23.30;;;3.00;1.00;;;;;;5092898;28;20240;-75
2024/03/09 00:30:43;;;;;;;33.25;25.98;;;3.00;1.00;;;;;;5092470;28;20252;-76
2024/03/09 00:33:10;;;;;;;36.97;25.65;;;3.00;1.00;;;;;;5106620;27;20963;-76
2024/03/09 00:35:40;;;;;;;30.20;24.15;;;2.90;1.00;;;;;;5091989;28;20240;-74
2024/03/09 00:38:08;;;;;;;35.10;26.95;;;2.80;1.00;;;;;;5090322;28;20294;-75
2024/03/09 00:40:35;;;;;;;33.28;25.38;;;2.80;1.00;;;;;;5099567;27;20343;-76
2024/03/09 00:43:06;;;;;;;30.67;23.20;;;2.80;1.00;;;;;;5104940;27;20270;-73
2024/03/09 00:45:33;;;;;;;33.42;23.85;;;2.80;1.00;;;;;;5095309;28;20243;-76
2024/03/09 00:48:00;;;;;;;40.30;27.25;;;2.80;1.00;;;;;;5111806;27;20334;-74
2024/03/09 00:50:27;;;;;;;32.42;25.27;;;2.80;1.00;;;;;;5095388;27;20242;-73
2024/03/09 00:53:01;;;;;;;35.83;27.13;;;2.70;1.00;;;;;;5091795;28;20263;-73
2024/03/09 00:55:28;;;;;;;33.63;25.92;;;2.70;1.00;;;;;;5096014;28;20289;-75
2024/03/09 00:57:55;;;;;;;34.05;25.17;;;2.80;1.00;;;;;;5087434;27;20255;-74
2024/03/09 01:00:24;;;;;;;32.97;25.38;;;2.70;1.00;;;;;;5095229;28;20321;-75
2024/03/09 01:02:51;;;;;;;34.58;25.40;;;2.70;1.00;;;;;;5100057;27;20244;-75
2024/03/09 01:05:22;;;;;;;32.30;26.02;;;2.70;1.00;;;;;;5101386;27;20236;-75
2024/03/09 01:07:49;;;;;;;43.53;27.05;;;2.70;1.00;;;;;;5095628;27;20271;-75
2024/03/09 01:10:18;;;;;;;35.70;26.98;;;2.70;1.00;;;;;;5115760;27;21026;-77
2024/03/09 01:12:47;;;;;;;33.72;26.38;;;2.70;1.00;;;;;;5098743;27;21109;-74
2024/03/09 01:15:14;;;;;;;34.08;26.30;;;2.70;1.00;;;;;;5098270;27;20294;-75
2024/03/09 01:17:41;;;;;;;34.55;26.67;;;2.70;1.00;;;;;;5092908;28;20683;-74
2024/03/09 01:20:10;;;;;;;33.25;26.88;;;2.60;1.00;;;;;;5090968;28;20238;-76
2024/03/09 01:22:37;;;;;;;37.90;26.30;;;2.60;1.00;;;;;;5100489;27;20323;-76
2024/03/09 01:25:06;;;;;;;35.25;25.80;;;2.60;1.00;;;;;;5092834;28;20246;-75
2024/03/09 01:27:35;;;;;;;39.95;27.08;;;2.60;1.00;;;;;;5086468;28;20237;-74
2024/03/09 01:30:05;;;;;;;37.55;27.65;;;2.60;1.00;;;;;;5090946;28;20283;-75
2024/03/09 01:32:33;;;;;;;34.38;27.08;;;2.60;1.00;;;;;;5087712;28;20347;-74
2024/03/09 01:35:01;;;;;;;36.00;27.38;;;2.60;1.00;;;;;;5091099;28;22206;-74
2024/03/09 01:37:28;;;;;;;36.65;27.65;;;2.50;1.00;;;;;;5099919;27;20276;-74
2024/03/09 01:39:56;;;;;;;34.85;27.15;;;2.50;1.00;;;;;;5090295;28;20293;-74
2024/03/09 01:42:23;;;;;;;34.92;26.45;;;2.40;1.00;;;;;;5090438;28;20236;-74
2024/03/09 01:44:53;;;;;;;34.42;28.65;;;2.40;1.00;;;;;;5090056;28;20247;-74
2024/03/09 01:47:23;;;;;;;35.35;26.35;;;2.40;1.00;;;;;;5090999;28;20247;-73
2024/03/09 01:49:52;;;;;;;41.20;29.17;;;2.40;1.00;;;;;;5090901;27;21374;-75
2024/03/09 01:52:20;;;;;;;37.03;29.65;;;2.40;1.00;;;;;;5106970;27;20314;-74
2024/03/09 01:54:48;;;;;;;40.20;26.95;;;2.30;1.00;;;;;;5109778;27;20239;-74
2024/03/09 01:57:16;;;;;;;39.03;28.60;;;2.40;1.00;;;;;;5089784;28;20324;-76
2024/03/09 01:59:49;;;;;;;42.00;28.25;;;2.30;1.00;;;;;;5086909;28;20263;-76
2024/03/09 02:02:20;;;;;;;42.85;29.17;;;2.30;1.00;;;;;;5099424;27;20274;-75
2024/03/09 02:04:47;;;;;;;39.20;28.35;;;2.30;1.00;;;;;;5088529;28;20232;-76
2024/03/09 02:07:16;;;;;;;38.42;29.02;;;2.30;1.00;;;;;;5088849;28;20236;-75
2024/03/09 02:09:45;;;;;;;37.95;28.67;;;2.30;1.00;;;;;;5099376;27;20244;-75
2024/03/09 02:12:16;;;;;;;34.28;26.02;;;2.30;1.00;;;;;;5095729;27;20240;-76
2024/03/09 02:14:44;;;;;;;38.42;29.77;;;2.20;1.00;;;;;;5089234;28;20236;-76
2024/03/09 02:17:12;;;;;;;40.97;29.08;;;2.20;1.00;;;;;;5086985;28;20720;-75
2024/03/09 02:19:40;;;;;;;41.67;28.85;;;2.20;1.00;;;;;;5087448;28;20240;-76
2024/03/09 02:22:10;;;;;;;40.30;29.90;;;2.20;1.00;;;;;;5088405;28;20703;-75
2024/03/09 02:24:40;;;;;;;42.60;29.85;;;2.20;1.00;;;;;;5091963;28;20239;-75
2024/03/09 02:27:09;;;;;;;39.72;28.30;;;2.20;1.00;;;;;;5093791;28;20247;-76
2024/03/09 02:29:36;;;;;;;42.28;31.35;;;2.10;1.00;;;;;;5086105;28;20263;-75
2024/03/09 02:32:03;;;;;;;44.10;31.02;;;2.10;1.00;;;;;;5086450;27;20240;-76
2024/03/09 02:34:31;;;;;;;41.05;31.40;;;2.10;1.00;;;;;;5086934;28;20231;-75
2024/03/09 02:36:58;;;;;;;42.10;29.45;;;2.00;1.00;;;;;;5091878;27;20682;-75
2024/03/09 02:39:27;;;;;;;39.63;28.90;;;2.00;1.00;;;;;;5090683;27;20286;-74
2024/03/09 02:41:56;;;;;;;40.80;28.10;;;2.00;1.00;;;;;;5094609;27;21054;-75
2024/03/09 02:44:26;;;;;;;42.38;30.77;;;2.00;1.00;;;;;;5107426;27;20235;-75
2024/03/09 02:46:54;;;;;;;38.40;29.52;;;2.00;1.00;;;;;;5096213;27;20716;-75
2024/03/09 02:49:21;;;;;;;37.70;29.20;;;2.00;1.00;;;;;;5091243;27;20848;-75
2024/03/09 02:51:48;;;;;;;39.25;29.08;;;2.00;1.00;;;;;;5098144;27;21102;-75
2024/03/09 02:54:15;;;;;;;40.15;29.25;;;2.00;1.00;;;;;;5090550;28;20319;-74
2024/03/09 02:56:45;;;;;;;44.17;31.70;;;2.00;1.00;;;;;;5090533;28;20232;-74
2024/03/09 02:59:16;;;;;;;36.10;30.13;;;2.00;1.00;;;;;;5090529;28;20251;-75
2024/03/09 03:01:46;;;;;;;41.25;30.05;;;2.00;1.00;;;;;;5090623;28;20716;-75
2024/03/09 03:04:12;;;;;;;43.42;30.23;;;2.00;1.00;;;;;;5088369;28;20239;-75
2024/03/09 03:06:39;;;;;;;40.80;30.17;;;2.00;1.00;;;;;;5084637;28;20235;-75
2024/03/09 03:09:11;;;;;;;43.08;29.73;;;1.90;1.00;;;;;;5090380;28;21192;-75
2024/03/09 03:11:40;;;;;;;43.30;30.20;;;1.90;1.00;;;;;;5088276;28;20241;-74
2024/03/09 03:14:07;;;;;;;43.50;30.60;;;1.90;1.00;;;;;;5087811;28;20285;-76
2024/03/09 03:16:35;;;;;;;47.50;33.03;;;1.90;1.00;;;;;;5088258;27;21117;-76
2024/03/09 03:19:06;;;;;;;40.58;30.60;;;1.90;1.00;;;;;;5085314;28;20243;-76
2024/03/09 03:21:34;;;;;;;42.60;30.80;;;1.80;1.00;;;;;;5096620;27;20240;-74
2024/03/09 03:24:01;;;;;;;42.03;31.45;;;1.80;1.00;;;;;;5071665;28;20236;-74
2024/03/09 03:26:31;;;;;;;44.17;31.95;;;1.80;1.00;;;;;;5094978;27;20269;-75
2024/03/09 03:29:01;;;;;;;56.00;36.40;;;1.80;1.00;;;;;;5089073;27;20236;-74
2024/03/09 03:31:29;;;;;;;41.63;30.20;;;1.80;1.00;;;;;;5084990;28;20254;-74
2024/03/09 03:33:56;;;;;;;48.92;32.53;;;1.80;1.00;;;;;;5097802;27;20240;-76
2024/03/09 03:36:26;;;;;;;48.35;33.47;;;1.80;1.00;;;;;;5086806;28;21164;-74
2024/03/09 03:38:54;;;;;;;45.83;30.73;;;1.80;1.00;;;;;;5087462;28;20240;-74
2024/03/09 03:41:23;;;;;;;45.38;30.52;;;1.80;1.00;;;;;;5086644;27;21516;-75
2024/03/09 03:43:50;;;;;;;46.60;32.38;;;1.70;1.00;;;;;;5087002;28;20727;-75
2024/03/09 03:46:17;;;;;;;47.35;31.40;;;1.70;1.00;;;;;;5090518;28;21617;-75
2024/03/09 03:48:45;;;;;;;43.17;31.65;;;1.70;1.00;;;;;;5088768;28;20259;-75
2024/03/09 03:51:13;;;;;;;48.20;32.60;;;1.70;1.00;;;;;;5085171;28;20434;-75
2024/03/09 03:53:42;;;;;;;45.03;32.80;;;1.60;1.00;;;;;;5087220;27;21042;-74
2024/03/09 03:56:09;;;;;;;47.35;33.17;;;1.60;1.00;;;;;;5096586;27;20251;-76
2024/03/09 03:58:37;;;;;;;48.60;34.10;;;1.60;1.00;;;;;;5104458;27;20896;-75
2024/03/09 04:01:04;;;;;;;45.78;32.83;;;1.60;1.00;;;;;;5097802;27;20245;-75
2024/03/09 04:03:31;;;;;;;40.22;31.20;;;1.50;1.00;;;;;;5085439;28;20239;-75
2024/03/09 04:05:59;;;;;;;44.90;30.85;;;1.60;1.00;;;;;;5086562;28;20236;-76
2024/03/09 04:08:26;;;;;;;54.72;35.22;;;1.50;1.00;;;;;;5089690;28;20293;-75
2024/03/09 04:10:54;;;;;;;47.60;32.35;;;1.60;1.00;;;;;;5081153;27;20328;-75
2024/03/09 04:13:23;;;;;;;52.25;34.67;;;1.50;1.00;;;;;;5089798;28;20293;-74
2024/03/09 04:15:51;;;;;;;49.58;31.65;;;1.50;1.00;;;;;;5087029;28;20348;-74
2024/03/09 04:18:18;;;;;;;49.03;35.17;;;1.50;1.00;;;;;;5089133;28;20282;-74
2024/03/09 04:20:46;;;;;;;46.42;32.60;;;1.60;1.00;;;;;;5085852;28;20235;-74
2024/03/09 04:23:15;;;;;;;50.25;34.42;;;1.60;1.00;;;;;;5088154;28;20232;-75
2024/03/09 04:25:44;;;;;;;54.08;35.17;;;1.60;1.00;;;;;;5092574;28;20236;-75
2024/03/09 04:28:20;;;;;;;50.53;33.85;;;1.60;1.00;;;;;;5087078;28;20911;-74
2024/03/09 04:30:48;;;;;;;47.35;33.38;;;1.50;1.00;;;;;;5090758;27;20240;-74
2024/03/09 04:33:15;;;;;;;47.78;32.53;;;1.50;1.00;;;;;;5088575;28;20236;-75
2024/03/09 04:35:43;;;;;;;47.65;35.17;;;1.50;1.00;;;;;;5080371;28;20247;-74
2024/03/09 04:38:10;;;;;;;54.28;32.53;;;1.50;1.00;;;;;;5095975;27;20240;-76
2024/03/09 04:40:37;;;;;;;48.58;35.35;;;1.40;1.00;;;;;;5088138;28;20318;-76
2024/03/09 04:43:05;;;;;;;51.80;34.50;;;1.40;1.00;;;;;;5091921;28;20243;-74
2024/03/09 04:45:34;;;;;;;51.05;35.90;;;1.40;1.00;;;;;;5091513;27;20240;-75
2024/03/09 04:48:04;;;;;;;49.95;36.13;;;1.40;1.00;;;;;;5090704;27;20236;-75
2024/03/09 04:50:33;;;;;;;52.30;35.58;;;1.40;1.00;;;;;;5087505;28;20228;-75
2024/03/09 04:53:00;;;;;;;53.55;36.13;;;1.40;1.00;;;;;;5090834;28;20262;-75
2024/03/09 04:55:27;;;;;;;48.00;34.13;;;1.40;1.00;;;;;;5090081;28;20330;-74
2024/03/09 04:57:55;;;;;;;61.58;40.13;;;1.40;1.00;;;;;;5091387;27;20321;-74
2024/03/09 05:00:24;;;;;;;52.80;36.72;;;1.40;1.00;;;;;;5082153;28;20305;-75
2024/03/09 05:02:52;;;;;;;51.80;36.67;;;1.40;1.00;;;;;;5091230;27;20244;-73
2024/03/09 05:05:20;;;;;;;53.50;35.42;;;1.40;1.00;;;;;;5083231;28;20248;-75
2024/03/09 05:07:48;;;;;;;47.47;34.95;;;1.50;1.00;;;;;;5088236;27;20259;-74
2024/03/09 05:10:17;;;;;;;54.42;36.08;;;1.50;1.00;;;;;;5095722;27;20361;-76
2024/03/09 05:12:47;;;;;;;56.03;35.85;;;1.50;1.00;;;;;;5089544;27;20239;-76
2024/03/09 05:15:15;;;;;;;50.35;35.90;;;1.50;1.00;;;;;;5086712;28;20240;-76
2024/03/09 05:17:44;;;;;;;56.45;35.17;;;1.50;1.00;;;;;;5084609;28;20236;-75
2024/03/09 05:20:20;;;;;;;53.22;36.85;;;1.50;1.00;;;;;;5092840;27;21125;-74
2024/03/09 05:22:48;;;;;;;50.03;35.22;;;1.50;1.00;;;;;;5091586;27;20235;-75
2024/03/09 05:25:15;;;;;;;51.05;34.28;;;1.40;1.00;;;;;;5087889;28;20236;-74
2024/03/09 05:27:43;;;;;;;57.97;36.42;;;1.40;1.00;;;;;;5090199;28;20234;-72
2024/03/09 05:30:14;;;;;;;59.53;42.22;;;1.40;1.00;;;;;;5085375;28;20262;-73
2024/03/09 05:32:42;;;;;;;55.88;36.45;;;1.40;1.00;;;;;;5086720;27;20243;-75
2024/03/09 05:35:13;;;;;;;58.92;38.33;;;1.40;1.00;;;;;;5089737;28;20240;-72
2024/03/09 05:37:41;;;;;;;52.13;36.65;;;1.40;1.00;;;;;;5080316;28;20247;-72
2024/03/09 05:40:11;;;;;;;53.08;36.13;;;1.40;1.00;;;;;;5088219;28;20286;-75
2024/03/09 05:42:38;;;;;;;50.78;37.47;;;1.40;1.00;;;;;;5087986;28;20236;-73
2024/03/09 05:45:15;;;;;;;51.35;37.70;;;1.40;1.00;;;;;;5088746;27;21046;-73
2024/03/09 05:47:45;;;;;;;56.72;37.30;;;1.30;1.00;;;;;;5086398;27;20235;-73
2024/03/09 05:50:13;;;;;;;53.53;35.63;;;1.30;1.00;;;;;;5098233;27;20963;-73
2024/03/09 05:52:41;;;;;;;50.65;36.25;;;1.30;1.00;;;;;;5095207;27;20323;-74
2024/03/09 05:55:08;;;;;;;46.75;34.80;;;1.40;1.00;;;;;;5102791;27;20246;-71
2024/03/09 05:57:35;;;;;;;49.20;35.28;;;1.30;1.00;;;;;;5105641;27;20242;-73
2024/03/09 06:00:05;;;;;;;51.53;36.17;;;1.40;1.00;;;;;;5104105;27;20263;-73
2024/03/09 06:02:32;;;;;;;46.25;32.85;;;1.40;1.00;;;;;;5091872;27;20235;-73
2024/03/09 06:05:00;;;;;;;51.15;36.45;;;1.40;1.00;;;;;;5085818;28;20740;-74
2024/03/09 06:07:27;;;;;;;54.92;36.05;;;1.40;1.00;;;;;;5088760;28;20226;-72
2024/03/09 06:09:57;;;;;;;51.03;34.55;;;1.30;1.00;;;;;;5084706;28;21117;-71
2024/03/09 06:12:24;;;;;;;51.28;35.40;;;1.40;1.00;;;;;;5086058;27;20718;-73
2024/03/09 06:14:51;;;;;;;49.55;34.95;;;1.40;1.00;;;;;;5086575;27;20416;-73
2024/03/09 06:17:18;;;;;;;48.25;35.65;;;1.40;1.00;;;;;;5085154;28;20239;-72
2024/03/09 06:19:45;;;;;;;54.90;36.95;;;1.50;1.00;;;;;;5103394;27;20356;-73
2024/03/09 06:22:12;;;;;;;57.92;38.88;;;1.50;1.00;;;;;;5107674;27;20239;-73
2024/03/09 06:24:39;;;;;;;50.25;34.40;;;1.50;1.00;;;;;;5107315;27;20326;-72
2024/03/09 06:27:09;;;;;;;53.75;36.88;;;1.60;1.00;;;;;;5107040;27;20235;-72
2024/03/09 06:29:37;;;;;;;50.47;35.10;;;1.60;1.00;;;;;;5104882;27;20236;-72
2024/03/09 06:32:05;;;;;;;53.83;35.80;;;1.60;1.00;;;;;;5110738;27;21358;-71
2024/03/09 06:34:32;;;;;;;54.38;35.83;;;1.70;1.00;;;;;;5088456;27;20236;-73
2024/03/09 06:36:59;;;;;;;55.17;35.83;;;1.70;1.00;;;;;;5086825;28;20282;-74
2024/03/09 06:39:30;;;;;;;52.55;36.80;;;1.80;1.00;;;;;;5094150;27;20244;-76
2024/03/09 06:41:59;;;;;;;50.15;36.55;;;1.90;1.00;;;;;;5110199;27;20227;-76
2024/03/09 06:44:27;;;;;;;54.08;37.60;;;1.90;1.00;;;;;;5105290;27;20340;-75
2024/03/09 06:46:54;;;;;;;49.67;36.75;;;2.00;1.00;;;;;;5108888;27;20788;-76
2024/03/09 06:49:22;;;;;;;47.35;34.85;;;2.00;1.00;;;;;;5110376;27;20235;-75
2024/03/09 06:51:52;;;;;;;54.72;37.13;;;2.10;1.00;;;;;;5106784;27;20367;-75
2024/03/09 06:54:19;;;;;;;52.25;37.20;;;2.20;1.00;;;;;;5111493;27;20339;-75
2024/03/09 06:56:49;;;;;;;55.60;38.65;;;2.20;1.00;;;;;;5105183;27;20262;-75
2024/03/09 06:59:16;;;;;;;47.85;35.10;;;2.30;1.00;;;;;;5108010;27;20434;-75
2024/03/09 07:01:44;;;;;;;55.58;39.08;;;2.30;1.00;;;;;;5109546;27;20227;-76
2024/03/09 07:04:13;;;;;;;52.78;37.45;;;2.40;1.00;;;;;;5109440;27;21172;-75
2024/03/09 07:06:40;;;;;;;57.80;39.30;;;2.50;1.00;;;;;;5107815;27;20319;-76
2024/03/09 07:09:11;;;;;;;51.90;36.42;;;2.60;1.00;;;;;;5104741;27;20281;-76
2024/03/09 07:11:39;;;;;;;55.75;37.80;;;2.70;1.00;;;;;;5087955;27;20251;-76
2024/03/09 07:14:06;;;;;;;53.20;38.60;;;2.70;1.00;;;;;;5087401;28;20240;-76
2024/03/09 07:16:34;;;;;;;55.60;38.50;;;2.80;1.00;;;;;;5087780;28;20736;-74
2024/03/09 07:19:04;;;;;;;52.80;37.58;;;2.90;1.00;;;;;;5089795;27;20310;-76
2024/03/09 07:21:33;;;;;;;53.92;38.30;;;3.10;1.00;;;;;;5086670;28;20350;-76
2024/03/09 07:24:00;;;;;;;48.22;35.72;;;3.10;1.00;;;;;;5086550;28;20237;-75
2024/03/09 07:26:30;;;;;;;51.50;35.10;;;3.20;1.00;;;;;;5098123;27;20740;-76
2024/03/09 07:28:58;;;;;;;54.95;37.90;;;3.40;1.00;;;;;;5083519;27;20242;-75
2024/03/09 07:31:27;;;;;;;51.80;35.92;;;3.50;1.00;;;;;;5087349;28;20236;-74
2024/03/09 07:33:54;;;;;;;52.72;37.72;;;3.60;1.00;;;;;;5087644;28;20243;-78
2024/03/09 07:36:24;;;;;;;52.95;36.08;;;3.70;1.00;;;;;;5088871;28;20267;-75
2024/03/09 07:38:54;;;;;;;53.15;36.17;;;3.80;1.00;;;;;;5094152;27;21418;-75
2024/03/09 07:41:22;;;;;;;45.95;35.00;;;3.90;1.00;;;;;;5087320;28;20550;-74
2024/03/09 07:43:51;;;;;;;53.42;36.88;;;4.00;1.00;;;;;;5069889;28;20358;-74
2024/03/09 07:46:21;;;;;;;53.70;37.17;;;4.00;1.00;;;;;;5094194;27;20235;-75
2024/03/09 07:48:51;;;;;;;54.90;36.83;;;4.00;1.00;;;;;;5105161;27;20343;-75
2024/03/09 07:51:20;;;;;;;50.92;38.03;;;4.10;1.00;;;;;;5100131;27;20813;-74
2024/03/09 07:53:48;;;;;;;52.03;34.92;;;4.30;1.00;;;;;;5100846;27;20235;-75
2024/03/09 07:56:18;;;;;;;54.22;38.15;;;4.50;1.00;;;;;;5100066;27;20247;-74
2024/03/09 07:58:45;;;;;;;46.67;35.20;;;4.60;1.00;;;;;;5112490;27;20243;-75
2024/03/09 08:01:12;;;;;;;51.60;35.85;;;4.70;1.00;;;;;;5112337;27;20243;-75
2024/03/09 08:03:40;;;;;;;53.55;37.45;;;4.90;1.00;;;;;;5108704;27;20235;-76
2024/03/09 08:06:10;;;;;;;48.22;33.70;;;5.00;1.00;;;;;;5109170;27;20884;-73
2024/03/09 08:08:37;;;;;;;49.13;33.95;;;5.10;1.00;;;;;;5107752;27;20739;-75
2024/03/09 08:11:09;;;;;;;50.42;36.45;;;5.20;1.00;;;;;;5092666;28;20311;-75
2024/03/09 08:13:36;;;;;;;46.35;35.92;;;5.40;1.00;;;;;;5089394;27;20240;-76
2024/03/09 08:16:03;;;;;;;49.03;36.17;;;5.60;1.00;;;;;;5088850;28;20269;-75
2024/03/09 08:18:31;;;;;;;49.10;33.78;;;5.90;1.00;;;;;;5095758;27;20297;-74
2024/03/09 08:21:02;;;;;;;45.92;33.55;;;6.10;1.00;;;;;;5108107;27;20237;-76
2024/03/09 08:23:29;;;;;;;47.63;35.17;;;6.40;1.00;;;;;;5111562;27;20251;-76
2024/03/09 08:25:58;;;;;;;49.20;35.80;;;6.50;1.00;;;;;;5090878;28;20242;-74
2024/03/09 08:28:26;;;;;;;46.45;36.00;;;6.50;1.00;;;;;;5087565;28;20742;-74
2024/03/09 08:30:54;;;;;;;44.33;34.22;;;6.50;1.00;;;;;;5069069;28;21053;-75
2024/03/09 08:33:21;;;;;;;51.15;35.47;;;6.70;1.00;;;;;;5095058;27;20329;-75
2024/03/09 08:35:48;;;;;;;43.67;32.57;;;6.80;1.00;;;;;;5107281;27;20233;-75
2024/03/09 08:38:15;;;;;;;42.90;32.92;;;6.90;1.00;;;;;;5113596;27;21428;-75
2024/03/09 08:40:41;;;;;;;46.80;34.10;;;7.00;1.00;;;;;;5108472;27;20248;-76
2024/03/09 08:43:08;;;;;;;47.20;34.42;;;7.10;1.00;;;;;;5109403;27;21199;-76
2024/03/09 08:45:37;;;;;;;42.30;32.22;;;7.00;1.00;;;;;;5100785;27;20231;-75
2024/03/09 08:48:04;;;;;;;42.60;33.30;;;7.00;1.00;;;;;;5088035;28;20250;-75
2024/03/09 08:50:33;;;;;;;43.45;33.20;;;7.10;1.00;;;;;;5088334;28;20329;-76
2024/03/09 08:53:00;;;;;;;48.60;36.60;;;7.20;1.00;;;;;;5103039;27;20238;-75
2024/03/09 08:55:27;;;;;;;46.13;33.28;;;7.40;1.00;;;;;;5094656;27;20968;-75
2024/03/09 08:57:54;;;;;;;42.10;34.27;;;7.70;1.00;;;;;;5094999;27;20246;-76
2024/03/09 09:00:24;;;;;;;38.72;31.23;;;8.20;1.00;;;;;;5091296;28;20469;-76
2024/03/09 09:02:53;;;;;;;44.07;33.70;;;8.80;1.00;;;;;;5086039;27;20244;-75
2024/03/09 09:05:21;;;;;;;43.77;32.90;;;9.70;1.00;;;;;;5089183;28;20491;-76
2024/03/09 09:07:50;;;;;;;42.50;33.43;;;10.70;1.00;;;;;;5092020;27;20463;-76
2024/03/09 09:10:22;;;;;;;38.57;30.67;;;11.70;1.00;;;;;;5089978;28;20450;-77
2024/03/09 09:12:50;;;;;;;39.40;31.47;;;12.50;1.00;;;;;;5089580;27;21281;-74
2024/03/09 09:15:19;;;;;;;44.03;32.27;;;12.70;1.00;;;;;;5090297;28;20502;-76
2024/03/09 09:17:46;;;;;;;37.20;30.70;;;13.00;1.00;;;;;;5086724;28;21855;-77
2024/03/09 09:20:15;;;;;;;42.10;33.60;;;13.60;1.00;;;;;;5090109;28;20452;-76
2024/03/09 09:22:43;;;;;;;36.03;31.10;;;14.50;1.00;;;;;;5091308;28;20470;-75
2024/03/09 09:25:12;;;;;;;36.40;31.33;;;15.30;1.00;;;;;;5089736;28;20453;-77
2024/03/09 09:27:39;;;;;;;36.83;32.10;;;15.70;1.00;;;;;;5087602;28;20477;-75
2024/03/09 09:30:09;;;;;;;39.10;32.53;;;16.00;1.00;;;;;;5088908;28;20450;-75
2024/03/09 09:32:36;;;;;;;34.90;30.40;;;15.90;1.00;;;;;;5083207;28;20470;-77
2024/03/09 09:35:03;;;;;;;36.53;31.97;;;16.20;1.00;;;;;;5090501;28;20490;-76
2024/03/09 09:37:32;;;;;;;40.80;31.90;;;16.60;1.00;;;;;;5086537;27;20477;-78
2024/03/09 09:40:00;;;;;;;35.50;31.60;;;16.80;1.00;;;;;;5088073;28;20451;-77
2024/03/09 09:42:30;;;;;;;35.80;31.90;;;16.50;1.00;;;;;;5088363;28;20446;-76
2024/03/09 09:44:58;;;;;;;38.43;30.73;;;17.00;1.00;;;;;;5087120;28;20467;-76
2024/03/09 09:47:25;;;;;;;38.40;30.03;;;17.10;1.00;;;;;;5091959;28;20892;-75
2024/03/09 09:49:55;;;;;;;37.20;31.43;;;17.30;1.00;;;;;;5091629;27;20475;-76
2024/03/09 09:52:23;;;;;;;35.50;31.70;;;17.30;1.00;;;;;;5092784;27;20451;-75
2024/03/09 09:54:55;;;;;;;37.10;31.13;;;17.10;1.00;;;;;;5107496;27;20556;-75
2024/03/09 09:57:24;;;;;;;35.63;31.87;;;16.70;1.00;;;;;;5095809;28;20462;-75
2024/03/09 09:59:51;;;;;;;37.27;33.13;;;16.70;1.00;;;;;;5090773;28;20448;-75
2024/03/09 10:02:21;;;;;;;38.17;31.10;;;16.20;1.00;;;;;;5091325;28;20466;-75
2024/03/09 10:04:51;;;;;;;33.77;29.10;;;16.00;1.00;;;;;;5102109;27;20537;-74
2024/03/09 10:07:18;;;;;;;35.10;29.20;;;16.40;1.00;;;;;;5107526;27;20559;-75
2024/03/09 10:09:47;;;;;;;34.67;29.70;;;16.90;1.00;;;;;;5089104;27;20466;-73
2024/03/09 10:12:21;;;;;;;35.60;31.00;;;17.30;1.00;;;;;;5091575;28;20835;-77
2024/03/09 10:14:48;;;;;;;39.70;31.73;;;16.80;1.00;;;;;;5087184;28;20458;-75
2024/03/09 10:17:19;;;;;;;34.90;31.20;;;15.70;1.00;;;;;;5089964;27;20549;-76
2024/03/09 10:19:47;;;;;;;36.90;31.67;;;14.90;1.00;;;;;;5089523;28;20509;-75
2024/03/09 10:22:14;;;;;;;34.17;29.63;;;14.20;1.00;;;;;;5088100;28;20450;-75
2024/03/09 10:24:53;;;;;;;33.43;29.73;;;13.50;1.00;;;;;;5084716;27;20558;-76
2024/03/09 10:27:26;;;;;;;37.00;31.00;;;12.50;1.00;;;;;;5089272;28;21045;-75
2024/03/09 10:30:10;;;;;;;35.43;31.43;;;12.10;1.00;;;;;;5088832;28;20446;-77
2024/03/09 10:32:41;;;;;;;44.27;32.17;;;12.20;1.00;;;;;;5087900;28;23256;-75
2024/03/09 10:35:09;;;;;;;32.00;28.60;;;13.30;1.00;;;;;;5083657;28;20851;-77
2024/03/09 10:37:38;;;;;;;34.03;30.40;;;15.20;1.00;;;;;;5089964;27;21341;-76
2024/03/09 10:40:12;;;;;;;33.67;29.97;;;16.50;1.00;;;;;;5087464;28;20435;-75
2024/03/09 10:42:43;;;;;;;33.90;29.93;;;17.50;1.00;;;;;;5089553;28;20422;-76
2024/03/09 10:45:14;;;;;;;37.07;31.03;;;18.70;1.00;;;;;;5095904;27;20777;-76
2024/03/09 10:47:49;;;;;;;35.10;29.40;;;19.10;1.00;;;;;;5088882;28;20553;-79
2024/03/09 10:50:22;;;;;;;34.60;30.53;;;20.00;1.00;;;;;;5094443;27;20463;-78
2024/03/09 10:52:53;;;;;;;32.90;28.03;;;20.70;1.00;;;;;;5110083;27;20468;-78
2024/03/09 10:55:24;;;;;;;30.73;27.43;;;20.10;1.00;;;;;;5111125;27;20427;-79
2024/03/09 10:57:54;;;;;;;33.47;29.97;;;18.70;1.00;;;;;;5111023;27;20565;-79
2024/03/09 11:00:29;;;;;;;34.53;29.40;;;18.10;1.00;;;;;;5107162;27;20458;-79
2024/03/09 11:03:00;;;;;;;35.47;30.80;;;18.00;1.00;;;;;;5106976;27;20470;-79
2024/03/09 11:05:29;;;;;;;32.33;28.93;;;18.00;1.00;;;;;;5094853;27;20480;-79
2024/03/09 11:07:56;;;;;;;32.67;27.90;;;18.70;1.00;;;;;;5098904;27;20525;-81
2024/03/09 11:10:25;;;;;;;31.83;28.53;;;19.30;1.00;;;;;;5092277;28;20645;-77
2024/03/09 11:12:55;;;;;;;29.67;26.57;;;20.40;1.00;;;;;;5098782;27;21044;-81
2024/03/09 11:15:26;;;;;;;32.10;28.70;;;21.50;1.00;;;;;;5104103;27;20534;-79
2024/03/09 11:17:58;;;;;;;31.77;28.40;;;21.20;1.00;;;;;;5110958;27;21752;-81
2024/03/09 11:20:26;;;;;;;32.77;28.67;;;21.50;1.00;;;;;;5085125;27;20470;-80
2024/03/09 11:22:54;;;;;;;30.20;27.07;;;22.00;1.00;;;;;;5104453;27;20486;-77
2024/03/09 11:25:37;;;;;;;32.33;29.03;;;22.10;1.00;;;;;;5110110;27;20493;-80
2024/03/09 11:28:07;;;;;;;30.20;24.90;;;22.10;1.00;;;;;;5113440;27;20474;-80
2024/03/09 11:30:35;;;;;;;30.53;26.63;;;20.70;1.00;;;;;;5111499;27;20515;-77
2024/03/09 11:33:03;;;;;;;29.97;26.80;;;20.40;1.00;;;;;;5112538;27;20488;-80
2024/03/09 11:35:35;;;;;;;30.77;26.50;;;19.80;1.00;;;;;;5098300;28;20459;-80
2024/03/09 11:38:10;;;;;;;30.83;26.47;;;17.60;1.00;;;;;;5100910;27;20470;-79
2024/03/09 11:40:38;;;;;;;33.47;28.80;;;15.80;1.00;;;;;;5104501;27;20544;-81
2024/03/09 11:43:11;;;;;;;29.30;25.50;;;14.90;1.00;;;;;;5111740;27;20540;-80
2024/03/09 11:45:39;;;;;;;29.20;25.37;;;14.30;1.00;;;;;;5092729;27;20481;-80
2024/03/09 11:48:08;;;;;;;29.47;26.13;;;13.70;1.00;;;;;;5105962;27;20468;-79
2024/03/09 11:50:39;;;;;;;29.80;25.43;;;13.30;1.00;;;;;;5112553;27;20443;-79
2024/03/09 11:53:08;;;;;;;28.03;24.87;;;13.30;1.00;;;;;;5114905;27;20666;-79
2024/03/09 11:55:38;;;;;;;31.27;26.17;;;13.20;1.00;;;;;;5113696;27;20452;-79
2024/03/09 11:58:10;;;;;;;29.90;24.50;;;13.10;1.00;;;;;;5094153;28;20471;-76
2024/03/09 12:00:37;;;;;;;29.47;23.37;;;13.00;1.00;;;;;;5088498;28;20513;-78
2024/03/09 12:03:14;;;;;;;28.73;24.30;;;12.70;1.00;;;;;;5100945;27;20426;-76
2024/03/09 12:05:41;;;;;;;30.53;24.00;;;12.40;1.00;;;;;;5085114;27;20460;-77
2024/03/09 12:08:10;;;;;;;27.40;22.73;;;12.20;1.00;;;;;;5098973;27;20992;-75
2024/03/09 12:10:37;;;;;;;28.93;25.80;;;12.00;1.00;;;;;;5107673;27;20486;-74
2024/03/09 12:13:06;;;;;;;22.83;20.23;;;11.90;1.00;;;;;;5098990;27;20556;-76
2024/03/09 12:15:35;;;;;;;25.33;20.63;;;11.80;1.00;;;;;;5093483;28;20581;-76
2024/03/09 12:18:05;;;;;;;18.60;16.60;;;11.80;1.00;;;;;;5088629;27;20492;-75
2024/03/09 12:20:34;;;;;;;21.47;16.40;;;11.60;1.00;;;;;;5111260;27;21270;-76
2024/03/09 12:23:01;;;;;;;22.23;17.00;;;11.50;1.00;;;;;;5113685;27;20461;-76
2024/03/09 12:25:28;;;;;;;19.40;16.40;;;11.50;1.00;;;;;;5092775;27;20541;-76
2024/03/09 12:27:56;;;;;;;17.13;14.97;;;11.40;1.00;;;;;;5089822;28;20466;-76
2024/03/09 12:30:24;;;;;;;21.37;16.10;;;11.40;1.00;;;;;;5089775;28;20459;-76
2024/03/09 12:32:53;;;;;;;20.80;15.90;;;11.30;1.00;;;;;;5091394;27;20466;-75
2024/03/09 12:35:22;;;;;;;17.33;15.23;;;11.20;1.00;;;;;;5087945;27;20423;-75
2024/03/09 12:37:53;;;;;;;17.10;15.40;;;11.20;1.00;;;;;;5089019;28;20494;-75
2024/03/09 12:40:22;;;;;;;20.47;17.00;;;11.10;1.00;;;;;;5100708;27;20455;-76
2024/03/09 12:42:53;;;;;;;21.60;16.33;;;11.10;1.00;;;;;;5087479;27;20459;-75
2024/03/09 12:45:22;;;;;;;19.33;16.00;;;11.00;1.00;;;;;;5106129;27;20486;-76
2024/03/09 12:47:54;;;;;;;19.10;15.63;;;10.90;1.00;;;;;;5088736;28;20479;-73
2024/03/09 12:50:24;;;;;;;22.40;17.50;;;10.80;1.00;;;;;;5106897;27;20450;-76